sensor_id;sensor_type;location;lat;lon;timestamp;P1;durP1;ratioP1;P2;durP2;ratioP2
16246;SDS011;8231;50.866;7.944;2023-04-24T00:01:11;0.50;;;0.45;;
16246;SDS011;8231;50.866;7.944;2023-04-24T00:03:41;1.05;;;0.55;;
16246;SDS011;8231;50.866;7.944;2023-04-24T00:06:09;0.82;;;0.52;;
16246;SDS011;8231;50.866;7.944;2023-04-24T00:08:37;0.52;;;0.50;;
16246;SDS011;8231;50.866;7.944;2023-04-24T00:11:06;0.52;;;0.52;;
16246;SDS011;8231;50.866;7.944;2023-04-24T00:13:34;4.32;;;0.60;;
16246;SDS011;8231;50.866;7.944;2023-04-24T00:16:02;0.60;;;0.50;;
16246;SDS011;8231;50.866;7.944;2023-04-24T00:18:31;1.10;;;0.63;;
16246;SDS011;8231;50.866;7.944;2023-04-24T00:21:01;1.05;;;0.70;;
16246;SDS011;8231;50.866;7.944;2023-04-24T00:23:29;0.50;;;0.50;;
16246;SDS011;8231;50.866;7.944;2023-04-24T00:25:58;1.40;;;0.50;;
16246;SDS011;8231;50.866;7.944;2023-04-24T00:28:26;0.55;;;0.40;;
16246;SDS011;8231;50.866;7.944;2023-04-24T00:30:56;1.52;;;0.57;;
16246;SDS011;8231;50.866;7.944;2023-04-24T00:33:24;0.70;;;0.68;;
16246;SDS011;8231;50.866;7.944;2023-04-24T00:35:52;0.50;;;0.50;;
16246;SDS011;8231;50.866;7.944;2023-04-24T00:38:22;1.70;;;1.60;;
16246;SDS011;8231;50.866;7.944;2023-04-24T00:40:52;1.17;;;0.68;;
16246;SDS011;8231;50.866;7.944;2023-04-24T00:43:21;1.13;;;0.57;;
16246;SDS011;8231;50.866;7.944;2023-04-24T00:45:50;0.60;;;0.52;;
16246;SDS011;8231;50.866;7.944;2023-04-24T00:48:18;3.10;;;0.70;;
16246;SDS011;8231;50.866;7.944;2023-04-24T00:50:47;1.30;;;0.60;;
16246;SDS011;8231;50.866;7.944;2023-04-24T00:53:15;0.70;;;0.50;;
16246;SDS011;8231;50.866;7.944;2023-04-24T00:55:45;1.33;;;0.77;;
16246;SDS011;8231;50.866;7.944;2023-04-24T00:58:14;1.58;;;0.82;;
16246;SDS011;8231;50.866;7.944;2023-04-24T01:00:42;1.02;;;0.60;;
16246;SDS011;8231;50.866;7.944;2023-04-24T01:03:11;0.60;;;0.60;;
16246;SDS011;8231;50.866;7.944;2023-04-24T01:05:41;0.73;;;0.73;;
16246;SDS011;8231;50.866;7.944;2023-04-24T01:08:09;1.13;;;0.68;;
16246;SDS011;8231;50.866;7.944;2023-04-24T01:10:38;0.82;;;0.75;;
16246;SDS011;8231;50.866;7.944;2023-04-24T01:13:10;0.82;;;0.80;;
16246;SDS011;8231;50.866;7.944;2023-04-24T01:15:38;0.95;;;0.82;;
16246;SDS011;8231;50.866;7.944;2023-04-24T01:18:06;0.82;;;0.60;;
16246;SDS011;8231;50.866;7.944;2023-04-24T01:20:35;0.82;;;0.57;;
16246;SDS011;8231;50.866;7.944;2023-04-24T01:23:08;2.65;;;0.70;;
16246;SDS011;8231;50.866;7.944;2023-04-24T01:25:37;0.70;;;0.70;;
16246;SDS011;8231;50.866;7.944;2023-04-24T01:28:05;1.88;;;0.90;;
16246;SDS011;8231;50.866;7.944;2023-04-24T01:30:34;1.77;;;0.63;;
16246;SDS011;8231;50.866;7.944;2023-04-24T01:33:02;0.70;;;0.70;;
16246;SDS011;8231;50.866;7.944;2023-04-24T01:35:32;0.75;;;0.50;;
16246;SDS011;8231;50.866;7.944;2023-04-24T01:38:00;0.50;;;0.50;;
16246;SDS011;8231;50.866;7.944;2023-04-24T01:40:30;0.65;;;0.65;;
16246;SDS011;8231;50.866;7.944;2023-04-24T01:42:59;2.70;;;0.68;;
16246;SDS011;8231;50.866;7.944;2023-04-24T01:45:29;0.70;;;0.50;;
16246;SDS011;8231;50.866;7.944;2023-04-24T01:47:57;1.13;;;0.40;;
16246;SDS011;8231;50.866;7.944;2023-04-24T01:50:27;0.57;;;0.40;;
16246;SDS011;8231;50.866;7.944;2023-04-24T01:52:55;1.30;;;0.75;;
16246;SDS011;8231;50.866;7.944;2023-04-24T01:55:23;1.15;;;0.57;;
16246;SDS011;8231;50.866;7.944;2023-04-24T01:57:54;0.50;;;0.40;;
16246;SDS011;8231;50.866;7.944;2023-04-24T02:00:23;1.30;;;0.60;;
16246;SDS011;8231;50.866;7.944;2023-04-24T02:02:52;0.60;;;0.60;;
16246;SDS011;8231;50.866;7.944;2023-04-24T02:05:43;0.68;;;0.60;;
16246;SDS011;8231;50.866;7.944;2023-04-24T02:08:11;2.30;;;1.17;;
16246;SDS011;8231;50.866;7.944;2023-04-24T02:26:24;2.92;;;1.00;;
16246;SDS011;8231;50.866;7.944;2023-04-24T02:28:52;1.00;;;0.80;;
16246;SDS011;8231;50.866;7.944;2023-04-24T02:31:21;0.80;;;0.80;;
16246;SDS011;8231;50.866;7.944;2023-04-24T02:33:49;0.80;;;0.80;;
16246;SDS011;8231;50.866;7.944;2023-04-24T02:36:17;0.80;;;0.80;;
16246;SDS011;8231;50.866;7.944;2023-04-24T02:38:47;0.98;;;0.95;;
16246;SDS011;8231;50.866;7.944;2023-04-24T02:41:16;5.43;;;1.17;;
16246;SDS011;8231;50.866;7.944;2023-04-24T02:43:45;1.25;;;1.13;;
16246;SDS011;8231;50.866;7.944;2023-04-24T02:46:13;1.27;;;1.10;;
16246;SDS011;8231;50.866;7.944;2023-04-24T02:48:42;1.30;;;1.20;;
16246;SDS011;8231;50.866;7.944;2023-04-24T02:51:10;2.65;;;1.10;;
16246;SDS011;8231;50.866;7.944;2023-04-24T02:53:38;1.10;;;1.05;;
16246;SDS011;8231;50.866;7.944;2023-04-24T02:56:06;4.35;;;1.50;;
16246;SDS011;8231;50.866;7.944;2023-04-24T02:58:34;2.72;;;2.08;;
16246;SDS011;8231;50.866;7.944;2023-04-24T03:01:04;3.88;;;1.60;;
16246;SDS011;8231;50.866;7.944;2023-04-24T03:03:33;1.77;;;1.67;;
16246;SDS011;8231;50.866;7.944;2023-04-24T03:06:01;1.88;;;1.60;;
16246;SDS011;8231;50.866;7.944;2023-04-24T03:08:32;1.58;;;1.48;;
16246;SDS011;8231;50.866;7.944;2023-04-24T03:11:00;2.13;;;1.42;;
16246;SDS011;8231;50.866;7.944;2023-04-24T03:13:28;1.90;;;1.75;;
16246;SDS011;8231;50.866;7.944;2023-04-24T03:15:57;5.13;;;1.70;;
16246;SDS011;8231;50.866;7.944;2023-04-24T03:18:28;2.28;;;1.95;;
16246;SDS011;8231;50.866;7.944;2023-04-24T03:20:56;3.45;;;1.92;;
16246;SDS011;8231;50.866;7.944;2023-04-24T03:23:25;2.00;;;1.75;;
16246;SDS011;8231;50.866;7.944;2023-04-24T03:25:53;2.40;;;2.10;;
16246;SDS011;8231;50.866;7.944;2023-04-24T03:28:22;3.30;;;3.00;;
16246;SDS011;8231;50.866;7.944;2023-04-24T03:30:58;2.80;;;2.58;;
16246;SDS011;8231;50.866;7.944;2023-04-24T03:33:33;2.38;;;2.17;;
16246;SDS011;8231;50.866;7.944;2023-04-24T03:36:02;3.15;;;2.85;;
16246;SDS011;8231;50.866;7.944;2023-04-24T03:38:37;7.25;;;3.00;;
16246;SDS011;8231;50.866;7.944;2023-04-24T03:41:28;3.22;;;2.92;;
16246;SDS011;8231;50.866;7.944;2023-04-24T03:44:22;3.97;;;3.53;;
16246;SDS011;8231;50.866;7.944;2023-04-24T03:46:51;5.38;;;4.13;;
16246;SDS011;8231;50.866;7.944;2023-04-24T03:49:23;3.70;;;3.40;;
16246;SDS011;8231;50.866;7.944;2023-04-24T03:51:52;4.53;;;3.78;;
16246;SDS011;8231;50.866;7.944;2023-04-24T03:54:22;4.22;;;3.83;;
16246;SDS011;8231;50.866;7.944;2023-04-24T03:56:52;5.43;;;4.15;;
16246;SDS011;8231;50.866;7.944;2023-04-24T03:59:21;4.72;;;3.85;;
16246;SDS011;8231;50.866;7.944;2023-04-24T04:02:03;5.15;;;4.07;;
16246;SDS011;8231;50.866;7.944;2023-04-24T04:04:33;5.80;;;3.70;;
16246;SDS011;8231;50.866;7.944;2023-04-24T04:07:01;4.65;;;4.25;;
16246;SDS011;8231;50.866;7.944;2023-04-24T04:09:32;10.15;;;4.35;;
16246;SDS011;8231;50.866;7.944;2023-04-24T04:12:00;5.22;;;3.63;;
16246;SDS011;8231;50.866;7.944;2023-04-24T04:14:31;4.82;;;3.97;;
16246;SDS011;8231;50.866;7.944;2023-04-24T04:16:59;4.93;;;4.15;;
16246;SDS011;8231;50.866;7.944;2023-04-24T04:19:28;4.50;;;4.10;;
16246;SDS011;8231;50.866;7.944;2023-04-24T04:21:57;6.55;;;5.45;;
16246;SDS011;8231;50.866;7.944;2023-04-24T04:24:37;15.25;;;10.43;;
16246;SDS011;8231;50.866;7.944;2023-04-24T04:27:08;13.20;;;9.30;;
16246;SDS011;8231;50.866;7.944;2023-04-24T04:29:45;24.73;;;16.55;;
16246;SDS011;8231;50.866;7.944;2023-04-24T04:32:14;13.63;;;9.80;;
16246;SDS011;8231;50.866;7.944;2023-04-24T04:34:43;6.13;;;5.63;;
16246;SDS011;8231;50.866;7.944;2023-04-24T04:37:14;7.63;;;6.90;;
16246;SDS011;8231;50.866;7.944;2023-04-24T04:40:14;4.60;;;4.10;;
16246;SDS011;8231;50.866;7.944;2023-04-24T04:42:55;5.68;;;4.93;;
16246;SDS011;8231;50.866;7.944;2023-04-24T04:45:25;4.95;;;4.13;;
16246;SDS011;8231;50.866;7.944;2023-04-24T04:48:17;5.93;;;4.97;;
16246;SDS011;8231;50.866;7.944;2023-04-24T04:50:45;9.07;;;4.93;;
16246;SDS011;8231;50.866;7.944;2023-04-24T04:53:15;7.82;;;6.38;;
16246;SDS011;8231;50.866;7.944;2023-04-24T04:55:44;7.95;;;5.85;;
16246;SDS011;8231;50.866;7.944;2023-04-24T04:58:14;5.88;;;5.38;;
16246;SDS011;8231;50.866;7.944;2023-04-24T05:00:44;4.22;;;3.83;;
16246;SDS011;8231;50.866;7.944;2023-04-24T05:07:55;5.00;;;4.50;;
16246;SDS011;8231;50.866;7.944;2023-04-24T05:10:25;5.70;;;4.00;;
16246;SDS011;8231;50.866;7.944;2023-04-24T05:12:56;4.95;;;4.45;;
16246;SDS011;8231;50.866;7.944;2023-04-24T05:15:25;4.97;;;4.38;;
16246;SDS011;8231;50.866;7.944;2023-04-24T05:17:54;7.72;;;4.82;;
16246;SDS011;8231;50.866;7.944;2023-04-24T05:20:24;5.88;;;4.85;;
16246;SDS011;8231;50.866;7.944;2023-04-24T05:22:53;5.03;;;4.45;;
16246;SDS011;8231;50.866;7.944;2023-04-24T05:25:23;7.07;;;4.72;;
16246;SDS011;8231;50.866;7.944;2023-04-24T05:27:57;5.15;;;4.38;;
16246;SDS011;8231;50.866;7.944;2023-04-24T05:30:25;5.65;;;4.53;;
16246;SDS011;8231;50.866;7.944;2023-04-24T05:32:53;5.63;;;4.95;;
16246;SDS011;8231;50.866;7.944;2023-04-24T05:35:22;5.82;;;4.82;;
16246;SDS011;8231;50.866;7.944;2023-04-24T05:37:50;5.53;;;4.32;;
16246;SDS011;8231;50.866;7.944;2023-04-24T05:40:19;11.68;;;6.40;;
16246;SDS011;8231;50.866;7.944;2023-04-24T05:42:47;5.78;;;4.80;;
16246;SDS011;8231;50.866;7.944;2023-04-24T05:45:17;5.47;;;4.55;;
16246;SDS011;8231;50.866;7.944;2023-04-24T05:47:45;4.65;;;4.25;;
16246;SDS011;8231;50.866;7.944;2023-04-24T05:50:13;6.18;;;4.57;;
16246;SDS011;8231;50.866;7.944;2023-04-24T05:52:42;7.72;;;4.47;;
16246;SDS011;8231;50.866;7.944;2023-04-24T05:55:22;11.57;;;7.80;;
16246;SDS011;8231;50.866;7.944;2023-04-24T05:57:51;6.35;;;5.72;;
16246;SDS011;8231;50.866;7.944;2023-04-24T06:00:21;6.45;;;5.80;;
16246;SDS011;8231;50.866;7.944;2023-04-24T06:02:57;12.88;;;10.35;;
16246;SDS011;8231;50.866;7.944;2023-04-24T06:05:27;7.45;;;6.63;;
16246;SDS011;8231;50.866;7.944;2023-04-24T06:07:56;9.50;;;8.60;;
16246;SDS011;8231;50.866;7.944;2023-04-24T06:10:29;7.70;;;6.90;;
16246;SDS011;8231;50.866;7.944;2023-04-24T06:12:58;6.35;;;5.40;;
16246;SDS011;8231;50.866;7.944;2023-04-24T06:15:30;5.57;;;5.00;;
16246;SDS011;8231;50.866;7.944;2023-04-24T06:18:04;5.55;;;5.05;;
16246;SDS011;8231;50.866;7.944;2023-04-24T06:20:33;6.20;;;4.65;;
16246;SDS011;8231;50.866;7.944;2023-04-24T06:23:02;6.20;;;5.60;;
16246;SDS011;8231;50.866;7.944;2023-04-24T06:25:32;8.00;;;5.63;;
16246;SDS011;8231;50.866;7.944;2023-04-24T06:28:00;6.82;;;6.22;;
16246;SDS011;8231;50.866;7.944;2023-04-24T06:30:31;6.60;;;5.88;;
16246;SDS011;8231;50.866;7.944;2023-04-24T06:33:00;7.53;;;6.15;;
16246;SDS011;8231;50.866;7.944;2023-04-24T06:35:45;8.25;;;5.43;;
16246;SDS011;8231;50.866;7.944;2023-04-24T06:38:13;4.65;;;4.25;;
16246;SDS011;8231;50.866;7.944;2023-04-24T06:40:42;7.65;;;4.68;;
16246;SDS011;8231;50.866;7.944;2023-04-24T06:43:10;5.22;;;4.18;;
16246;SDS011;8231;50.866;7.944;2023-04-24T06:45:40;7.35;;;6.30;;
16246;SDS011;8231;50.866;7.944;2023-04-24T06:48:10;5.80;;;5.03;;
16246;SDS011;8231;50.866;7.944;2023-04-24T06:50:39;8.55;;;6.65;;
16246;SDS011;8231;50.866;7.944;2023-04-24T06:53:07;7.68;;;6.97;;
16246;SDS011;8231;50.866;7.944;2023-04-24T06:55:37;7.40;;;6.70;;
16246;SDS011;8231;50.866;7.944;2023-04-24T06:58:05;9.20;;;8.15;;
16246;SDS011;8231;50.866;7.944;2023-04-24T07:00:34;8.90;;;7.05;;
16246;SDS011;8231;50.866;7.944;2023-04-24T07:03:04;7.05;;;6.43;;
16246;SDS011;8231;50.866;7.944;2023-04-24T07:05:32;9.68;;;7.85;;
16246;SDS011;8231;50.866;7.944;2023-04-24T07:08:01;10.02;;;9.00;;
16246;SDS011;8231;50.866;7.944;2023-04-24T07:10:30;11.25;;;9.30;;
16246;SDS011;8231;50.866;7.944;2023-04-24T07:13:00;9.70;;;8.70;;
16246;SDS011;8231;50.866;7.944;2023-04-24T07:15:29;6.63;;;6.03;;
16246;SDS011;8231;50.866;7.944;2023-04-24T07:17:58;7.45;;;6.20;;
16246;SDS011;8231;50.866;7.944;2023-04-24T07:20:32;7.43;;;6.72;;
16246;SDS011;8231;50.866;7.944;2023-04-24T07:23:01;7.65;;;6.10;;
16246;SDS011;8231;50.866;7.944;2023-04-24T07:25:29;7.07;;;6.47;;
16246;SDS011;8231;50.866;7.944;2023-04-24T07:27:57;7.18;;;6.40;;
16246;SDS011;8231;50.866;7.944;2023-04-24T07:30:26;7.57;;;6.78;;
16246;SDS011;8231;50.866;7.944;2023-04-24T07:32:55;7.35;;;6.65;;
16246;SDS011;8231;50.866;7.944;2023-04-24T07:35:23;7.43;;;6.78;;
16246;SDS011;8231;50.866;7.944;2023-04-24T07:37:53;7.15;;;6.45;;
16246;SDS011;8231;50.866;7.944;2023-04-24T07:40:22;6.88;;;6.18;;
16246;SDS011;8231;50.866;7.944;2023-04-24T07:42:50;6.80;;;6.22;;
16246;SDS011;8231;50.866;7.944;2023-04-24T07:45:18;7.30;;;6.00;;
16246;SDS011;8231;50.866;7.944;2023-04-24T07:47:47;7.82;;;6.88;;
16246;SDS011;8231;50.866;7.944;2023-04-24T07:50:15;8.13;;;6.93;;
16246;SDS011;8231;50.866;7.944;2023-04-24T07:52:43;8.38;;;7.50;;
16246;SDS011;8231;50.866;7.944;2023-04-24T07:55:13;8.13;;;6.72;;
16246;SDS011;8231;50.866;7.944;2023-04-24T07:57:41;8.95;;;7.60;;
16246;SDS011;8231;50.866;7.944;2023-04-24T08:00:10;8.50;;;7.70;;
16246;SDS011;8231;50.866;7.944;2023-04-24T08:02:39;8.55;;;7.72;;
16246;SDS011;8231;50.866;7.944;2023-04-24T08:05:08;9.07;;;8.18;;
16246;SDS011;8231;50.866;7.944;2023-04-24T08:07:36;8.07;;;7.38;;
16246;SDS011;8231;50.866;7.944;2023-04-24T08:10:06;10.35;;;6.63;;
16246;SDS011;8231;50.866;7.944;2023-04-24T08:12:36;7.28;;;6.63;;
16246;SDS011;8231;50.866;7.944;2023-04-24T08:15:05;9.90;;;6.88;;
16246;SDS011;8231;50.866;7.944;2023-04-24T08:17:34;9.23;;;8.27;;
16246;SDS011;8231;50.866;7.944;2023-04-24T08:20:02;8.38;;;7.57;;
16246;SDS011;8231;50.866;7.944;2023-04-24T08:22:31;8.15;;;7.40;;
16246;SDS011;8231;50.866;7.944;2023-04-24T08:25:00;8.13;;;6.18;;
16246;SDS011;8231;50.866;7.944;2023-04-24T08:27:29;8.73;;;7.03;;
16246;SDS011;8231;50.866;7.944;2023-04-24T08:29:58;7.97;;;7.28;;
16246;SDS011;8231;50.866;7.944;2023-04-24T08:32:27;7.65;;;6.97;;
16246;SDS011;8231;50.866;7.944;2023-04-24T08:34:55;10.10;;;7.57;;
16246;SDS011;8231;50.866;7.944;2023-04-24T08:37:25;10.10;;;7.63;;
16246;SDS011;8231;50.866;7.944;2023-04-24T08:39:54;8.50;;;7.72;;
16246;SDS011;8231;50.866;7.944;2023-04-24T08:42:22;8.20;;;7.50;;
16246;SDS011;8231;50.866;7.944;2023-04-24T08:44:50;7.72;;;6.95;;
16246;SDS011;8231;50.866;7.944;2023-04-24T08:47:20;7.70;;;6.90;;
16246;SDS011;8231;50.866;7.944;2023-04-24T08:49:51;7.53;;;6.40;;
16246;SDS011;8231;50.866;7.944;2023-04-24T08:52:20;7.72;;;6.75;;
16246;SDS011;8231;50.866;7.944;2023-04-24T08:54:49;9.98;;;7.25;;
16246;SDS011;8231;50.866;7.944;2023-04-24T08:57:17;6.80;;;5.72;;
16246;SDS011;8231;50.866;7.944;2023-04-24T08:59:46;5.72;;;5.22;;
16246;SDS011;8231;50.866;7.944;2023-04-24T09:02:15;4.90;;;4.40;;
16246;SDS011;8231;50.866;7.944;2023-04-24T09:04:46;3.70;;;3.40;;
16246;SDS011;8231;50.866;7.944;2023-04-24T09:07:16;4.72;;;3.92;;
16246;SDS011;8231;50.866;7.944;2023-04-24T09:09:45;4.10;;;3.70;;
16246;SDS011;8231;50.866;7.944;2023-04-24T09:12:15;2.88;;;2.63;;
16246;SDS011;8231;50.866;7.944;2023-04-24T09:14:44;2.45;;;1.67;;
16246;SDS011;8231;50.866;7.944;2023-04-24T09:17:13;1.90;;;1.70;;
16246;SDS011;8231;50.866;7.944;2023-04-24T09:19:41;1.45;;;1.35;;
16246;SDS011;8231;50.866;7.944;2023-04-24T09:22:11;1.35;;;1.25;;
16246;SDS011;8231;50.866;7.944;2023-04-24T09:24:39;2.65;;;1.30;;
16246;SDS011;8231;50.866;7.944;2023-04-24T09:27:08;1.42;;;1.10;;
16246;SDS011;8231;50.866;7.944;2023-04-24T09:29:39;0.95;;;0.95;;
16246;SDS011;8231;50.866;7.944;2023-04-24T09:32:21;1.27;;;1.17;;
16246;SDS011;8231;50.866;7.944;2023-04-24T09:35:04;1.00;;;0.90;;
16246;SDS011;8231;50.866;7.944;2023-04-24T09:37:39;2.30;;;0.68;;
16246;SDS011;8231;50.866;7.944;2023-04-24T09:40:10;2.67;;;0.90;;
16246;SDS011;8231;50.866;7.944;2023-04-24T09:42:45;1.35;;;0.98;;
16246;SDS011;8231;50.866;7.944;2023-04-24T09:45:19;1.05;;;0.70;;
16246;SDS011;8231;50.866;7.944;2023-04-24T09:47:51;0.75;;;0.50;;
16246;SDS011;8231;50.866;7.944;2023-04-24T09:50:20;0.60;;;0.50;;
16246;SDS011;8231;50.866;7.944;2023-04-24T09:52:57;0.73;;;0.60;;
16246;SDS011;8231;50.866;7.944;2023-04-24T09:55:26;1.70;;;0.65;;
16246;SDS011;8231;50.866;7.944;2023-04-24T09:57:55;0.85;;;0.77;;
16246;SDS011;8231;50.866;7.944;2023-04-24T10:00:27;0.60;;;0.60;;
16246;SDS011;8231;50.866;7.944;2023-04-24T10:02:57;1.58;;;0.60;;
16246;SDS011;8231;50.866;7.944;2023-04-24T10:05:27;1.02;;;0.63;;
16246;SDS011;8231;50.866;7.944;2023-04-24T10:07:57;1.35;;;1.10;;
16246;SDS011;8231;50.866;7.944;2023-04-24T10:10:29;1.02;;;0.73;;
16246;SDS011;8231;50.866;7.944;2023-04-24T10:12:58;0.75;;;0.70;;
16246;SDS011;8231;50.866;7.944;2023-04-24T10:15:27;2.58;;;0.77;;
16246;SDS011;8231;50.866;7.944;2023-04-24T10:17:57;1.00;;;0.90;;
16246;SDS011;8231;50.866;7.944;2023-04-24T10:20:27;1.00;;;0.90;;
16246;SDS011;8231;50.866;7.944;2023-04-24T10:22:58;1.42;;;1.33;;
16246;SDS011;8231;50.866;7.944;2023-04-24T10:25:28;1.15;;;1.05;;
16246;SDS011;8231;50.866;7.944;2023-04-24T10:27:58;1.65;;;1.40;;
16246;SDS011;8231;50.866;7.944;2023-04-24T10:30:28;3.20;;;2.00;;
16246;SDS011;8231;50.866;7.944;2023-04-24T10:33:01;1.70;;;1.40;;
16246;SDS011;8231;50.866;7.944;2023-04-24T10:35:31;1.52;;;1.25;;
16246;SDS011;8231;50.866;7.944;2023-04-24T10:38:05;1.52;;;1.42;;
16246;SDS011;8231;50.866;7.944;2023-04-24T10:40:36;1.67;;;1.58;;
16246;SDS011;8231;50.866;7.944;2023-04-24T10:43:05;1.63;;;1.52;;
16246;SDS011;8231;50.866;7.944;2023-04-24T10:45:37;1.70;;;1.60;;
16246;SDS011;8231;50.866;7.944;2023-04-24T10:48:06;2.00;;;1.77;;
16246;SDS011;8231;50.866;7.944;2023-04-24T10:50:44;2.53;;;1.90;;
16246;SDS011;8231;50.866;7.944;2023-04-24T10:53:17;2.35;;;1.83;;
16246;SDS011;8231;50.866;7.944;2023-04-24T10:55:46;2.20;;;2.00;;
16246;SDS011;8231;50.866;7.944;2023-04-24T10:58:16;3.08;;;2.33;;
16246;SDS011;8231;50.866;7.944;2023-04-24T11:00:55;4.32;;;2.00;;
16246;SDS011;8231;50.866;7.944;2023-04-24T11:03:26;2.00;;;1.80;;
16246;SDS011;8231;50.866;7.944;2023-04-24T11:05:57;4.75;;;2.38;;
16246;SDS011;8231;50.866;7.944;2023-04-24T11:08:29;3.75;;;3.08;;
16246;SDS011;8231;50.866;7.944;2023-04-24T11:11:00;3.25;;;2.95;;
16246;SDS011;8231;50.866;7.944;2023-04-24T11:16:42;4.15;;;3.75;;
16246;SDS011;8231;50.866;7.944;2023-04-24T11:19:18;4.57;;;4.07;;
16246;SDS011;8231;50.866;7.944;2023-04-24T11:21:56;4.78;;;3.35;;
16246;SDS011;8231;50.866;7.944;2023-04-24T11:24:29;5.00;;;3.78;;
16246;SDS011;8231;50.866;7.944;2023-04-24T11:27:00;4.38;;;3.67;;
16246;SDS011;8231;50.866;7.944;2023-04-24T11:29:41;4.28;;;3.65;;
16246;SDS011;8231;50.866;7.944;2023-04-24T11:32:17;6.40;;;3.75;;
16246;SDS011;8231;50.866;7.944;2023-04-24T11:34:51;5.45;;;4.75;;
16246;SDS011;8231;50.866;7.944;2023-04-24T11:37:21;14.13;;;4.07;;
16246;SDS011;8231;50.866;7.944;2023-04-24T11:39:52;5.13;;;3.63;;
16246;SDS011;8231;50.866;7.944;2023-04-24T11:42:22;7.20;;;4.93;;
16246;SDS011;8231;50.866;7.944;2023-04-24T11:44:52;6.82;;;6.03;;
16246;SDS011;8231;50.866;7.944;2023-04-24T11:47:28;6.05;;;5.35;;
16246;SDS011;8231;50.866;7.944;2023-04-24T11:49:58;9.40;;;6.40;;
16246;SDS011;8231;50.866;7.944;2023-04-24T11:52:28;8.75;;;6.13;;
16246;SDS011;8231;50.866;7.944;2023-04-24T11:54:58;9.88;;;6.18;;
16246;SDS011;8231;50.866;7.944;2023-04-24T11:57:28;9.90;;;6.57;;
16246;SDS011;8231;50.866;7.944;2023-04-24T12:00:00;9.73;;;6.47;;
16246;SDS011;8231;50.866;7.944;2023-04-24T12:02:37;8.05;;;6.03;;
16246;SDS011;8231;50.866;7.944;2023-04-24T12:05:06;8.77;;;5.95;;
16246;SDS011;8231;50.866;7.944;2023-04-24T12:07:39;7.50;;;5.38;;
16246;SDS011;8231;50.866;7.944;2023-04-24T12:10:10;7.18;;;6.07;;
16246;SDS011;8231;50.866;7.944;2023-04-24T12:12:39;6.68;;;5.97;;
16246;SDS011;8231;50.866;7.944;2023-04-24T12:15:08;7.22;;;5.55;;
16246;SDS011;8231;50.866;7.944;2023-04-24T12:17:40;7.38;;;5.22;;
16246;SDS011;8231;50.866;7.944;2023-04-24T12:20:09;5.30;;;4.38;;
16246;SDS011;8231;50.866;7.944;2023-04-24T12:22:45;5.22;;;4.53;;
16246;SDS011;8231;50.866;7.944;2023-04-24T12:25:16;7.53;;;4.00;;
16246;SDS011;8231;50.866;7.944;2023-04-24T12:27:45;5.90;;;3.65;;
16246;SDS011;8231;50.866;7.944;2023-04-24T12:30:15;7.07;;;3.28;;
16246;SDS011;8231;50.866;7.944;2023-04-24T12:32:44;6.05;;;3.67;;
16246;SDS011;8231;50.866;7.944;2023-04-24T12:35:18;11.57;;;3.85;;
16246;SDS011;8231;50.866;7.944;2023-04-24T12:37:47;4.93;;;3.45;;
16246;SDS011;8231;50.866;7.944;2023-04-24T12:40:18;6.68;;;3.50;;
16246;SDS011;8231;50.866;7.944;2023-04-24T12:42:48;5.82;;;3.95;;
16246;SDS011;8231;50.866;7.944;2023-04-24T12:45:18;5.50;;;3.90;;
16246;SDS011;8231;50.866;7.944;2023-04-24T12:47:46;8.82;;;4.53;;
16246;SDS011;8231;50.866;7.944;2023-04-24T12:50:16;8.13;;;4.10;;
16246;SDS011;8231;50.866;7.944;2023-04-24T12:52:45;9.45;;;5.28;;
16246;SDS011;8231;50.866;7.944;2023-04-24T12:55:13;7.13;;;4.63;;
16246;SDS011;8231;50.866;7.944;2023-04-24T12:57:43;7.45;;;4.80;;
16246;SDS011;8231;50.866;7.944;2023-04-24T13:00:11;10.27;;;5.15;;
16246;SDS011;8231;50.866;7.944;2023-04-24T13:02:40;6.57;;;4.53;;
16246;SDS011;8231;50.866;7.944;2023-04-24T13:05:08;9.32;;;5.60;;
16246;SDS011;8231;50.866;7.944;2023-04-24T13:07:38;5.60;;;4.93;;
16246;SDS011;8231;50.866;7.944;2023-04-24T13:10:07;8.82;;;5.88;;
16246;SDS011;8231;50.866;7.944;2023-04-24T13:12:36;7.57;;;6.25;;
16246;SDS011;8231;50.866;7.944;2023-04-24T13:15:07;10.82;;;6.07;;
16246;SDS011;8231;50.866;7.944;2023-04-24T13:17:35;7.85;;;6.18;;
16246;SDS011;8231;50.866;7.944;2023-04-24T13:20:04;7.30;;;5.90;;
16246;SDS011;8231;50.866;7.944;2023-04-24T13:22:33;6.40;;;5.63;;
16246;SDS011;8231;50.866;7.944;2023-04-24T13:25:01;8.68;;;6.00;;
16246;SDS011;8231;50.866;7.944;2023-04-24T13:27:32;8.45;;;5.97;;
16246;SDS011;8231;50.866;7.944;2023-04-24T13:30:00;7.53;;;6.13;;
16246;SDS011;8231;50.866;7.944;2023-04-24T13:32:31;7.25;;;5.72;;
16246;SDS011;8231;50.866;7.944;2023-04-24T13:35:00;8.90;;;6.07;;
16246;SDS011;8231;50.866;7.944;2023-04-24T13:37:29;7.82;;;5.78;;
16246;SDS011;8231;50.866;7.944;2023-04-24T13:39:57;6.57;;;5.65;;
16246;SDS011;8231;50.866;7.944;2023-04-24T13:42:25;7.20;;;6.13;;
16246;SDS011;8231;50.866;7.944;2023-04-24T13:44:54;10.43;;;7.07;;
16246;SDS011;8231;50.866;7.944;2023-04-24T13:47:23;10.77;;;7.38;;
16246;SDS011;8231;50.866;7.944;2023-04-24T13:49:52;12.15;;;7.63;;
16246;SDS011;8231;50.866;7.944;2023-04-24T13:52:21;8.25;;;5.25;;
16246;SDS011;8231;50.866;7.944;2023-04-24T13:54:49;9.93;;;4.50;;
16246;SDS011;8231;50.866;7.944;2023-04-24T13:57:17;5.85;;;4.60;;
16246;SDS011;8231;50.866;7.944;2023-04-24T13:59:46;5.47;;;4.78;;
16246;SDS011;8231;50.866;7.944;2023-04-24T14:02:14;5.00;;;4.35;;
16246;SDS011;8231;50.866;7.944;2023-04-24T14:04:42;8.77;;;5.80;;
16246;SDS011;8231;50.866;7.944;2023-04-24T14:07:12;7.70;;;5.50;;
16246;SDS011;8231;50.866;7.944;2023-04-24T14:09:41;5.90;;;5.00;;
16246;SDS011;8231;50.866;7.944;2023-04-24T14:15:12;7.10;;;5.03;;
16246;SDS011;8231;50.866;7.944;2023-04-24T14:17:41;6.32;;;5.65;;
16246;SDS011;8231;50.866;7.944;2023-04-24T14:20:09;6.82;;;5.95;;
16246;SDS011;8231;50.866;7.944;2023-04-24T14:22:39;7.15;;;5.95;;
16246;SDS011;8231;50.866;7.944;2023-04-24T14:25:08;9.02;;;6.28;;
16246;SDS011;8231;50.866;7.944;2023-04-24T14:27:36;8.27;;;6.68;;
16246;SDS011;8231;50.866;7.944;2023-04-24T14:30:05;12.82;;;7.50;;
16246;SDS011;8231;50.866;7.944;2023-04-24T14:32:34;10.45;;;8.50;;
16246;SDS011;8231;50.866;7.944;2023-04-24T14:35:03;15.88;;;9.18;;
16246;SDS011;8231;50.866;7.944;2023-04-24T14:37:31;11.30;;;9.07;;
16246;SDS011;8231;50.866;7.944;2023-04-24T14:40:01;13.45;;;8.60;;
16246;SDS011;8231;50.866;7.944;2023-04-24T14:42:51;12.88;;;9.48;;
16246;SDS011;8231;50.866;7.944;2023-04-24T14:45:19;11.70;;;9.43;;
16246;SDS011;8231;50.866;7.944;2023-04-24T14:47:48;17.25;;;9.75;;
16246;SDS011;8231;50.866;7.944;2023-04-24T14:50:16;12.57;;;9.48;;
16246;SDS011;8231;50.866;7.944;2023-04-24T14:52:46;12.10;;;9.57;;
16246;SDS011;8231;50.866;7.944;2023-04-24T14:55:16;14.77;;;10.05;;
16246;SDS011;8231;50.866;7.944;2023-04-24T14:57:44;11.00;;;9.57;;
16246;SDS011;8231;50.866;7.944;2023-04-24T15:00:13;12.20;;;9.73;;
16246;SDS011;8231;50.866;7.944;2023-04-24T15:02:43;11.63;;;8.73;;
16246;SDS011;8231;50.866;7.944;2023-04-24T15:05:12;13.05;;;8.95;;
16246;SDS011;8231;50.866;7.944;2023-04-24T15:07:40;17.05;;;10.50;;
16246;SDS011;8231;50.866;7.944;2023-04-24T15:10:09;11.65;;;8.60;;
16246;SDS011;8231;50.866;7.944;2023-04-24T15:12:39;12.90;;;8.57;;
16246;SDS011;8231;50.866;7.944;2023-04-24T15:15:09;14.85;;;8.98;;
16246;SDS011;8231;50.866;7.944;2023-04-24T15:17:37;13.80;;;9.65;;
16246;SDS011;8231;50.866;7.944;2023-04-24T15:20:05;15.70;;;9.95;;
16246;SDS011;8231;50.866;7.944;2023-04-24T15:22:35;12.70;;;9.63;;
16246;SDS011;8231;50.866;7.944;2023-04-24T15:25:03;10.40;;;9.20;;
16246;SDS011;8231;50.866;7.944;2023-04-24T15:27:40;10.73;;;8.73;;
16246;SDS011;8231;50.866;7.944;2023-04-24T15:30:09;11.52;;;8.13;;
16246;SDS011;8231;50.866;7.944;2023-04-24T15:32:38;10.70;;;8.75;;
16246;SDS011;8231;50.866;7.944;2023-04-24T15:35:07;11.07;;;9.60;;
16246;SDS011;8231;50.866;7.944;2023-04-24T15:37:36;9.32;;;8.40;;
16246;SDS011;8231;50.866;7.944;2023-04-24T15:40:05;10.95;;;9.00;;
16246;SDS011;8231;50.866;7.944;2023-04-24T15:42:34;9.77;;;8.48;;
16246;SDS011;8231;50.866;7.944;2023-04-24T15:45:05;13.15;;;8.70;;